Helston, United Kingdom
Current Conditions -  °F | °C
As of 2:50 AM on Sunday 23 Nov 2014 (Local Time) from EGDR Reporting Station
Light Rain Light Rain  
Wind Chill: 43°   Ceiling: 5000
Heat Index: 48°   Visibility: 6mi
Dew Point: 43°   Wind: 12mph
Humidity: 82%   Direction: 360°N
Pressure: 30.03"   Gusts: NA
Location:  50.08°N, 5.2°W
Report Text: EGDR 230250Z 36010KT 9999 -RA FEW030 BKN050 09/06 Q1017 BLU
Loading
Personal Weather Stations






























Interactive Weather Map New forecast layout! Learn more

10-Day Weather Forecast

Advertisements
Track Severe Weather on mobile